Time;durP1;ratioP1;P1;durP2;ratioP2;P2;SDS_P1;SDS_P2;PMS_P1;PMS_P2;Temp;Humidity;BMP_temperature;BMP_pressure;BME280_temperature;BME280_humidity;BME280_pressure;Samples;Min_cycle;Max_cycle;Signal;HPM_P1;HPM_P2
2019/10/15 00:01:44;;;;;;;12.2;5.9;;;;;;;12.85;94.98926;955.6317;;;;
2019/10/15 00:04:09;;;;;;;10.7;5.6;;;;;;;12.82;95.56152;955.661;;;;
2019/10/15 00:06:34;;;;;;;9.8;5.4;;;;;;;12.99;94.52051;955.6741;;;;
2019/10/15 00:08:59;;;;;;;8.4;5.3;;;;;;;12.84;94.85938;955.6489;;;;
2019/10/15 00:11:24;;;;;;;8.5;5.3;;;;;;;12.91;94.45703;955.6401;;;;
2019/10/15 00:13:49;;;;;;;9.4;5.2;;;;;;;12.85;94.61914;955.6758;;;;
2019/10/15 00:16:15;;;;;;;10.2;5.2;;;;;;;12.74;94.90527;955.6581;;;;
2019/10/15 00:18:40;;;;;;;10.4;5.2;;;;;;;12.74;94.66309;955.6124;;;;
2019/10/15 00:21:05;;;;;;;14.3;5.3;;;;;;;12.7;93.46387;955.5403;;;;
2019/10/15 00:23:30;;;;;;;11.9;5.1;;;;;;;12.59;94.78223;955.5962;;;;
2019/10/15 00:25:55;;;;;;;9.3;5.1;;;;;;;12.72;93.64063;955.5773;;;;
2019/10/15 00:28:20;;;;;;;10;5.5;;;;;;;12.51;95.07617;955.6017;;;;
2019/10/15 00:30:46;;;;;;;10.2;5.3;;;;;;;12.56;94.41797;955.642;;;;
2019/10/15 00:33:11;;;;;;;9.7;5.4;;;;;;;12.52;94.40625;955.6295;;;;
2019/10/15 00:35:36;;;;;;;7.9;5;;;;;;;12.61;93.61816;955.5424;;;;
2019/10/15 00:38:01;;;;;;;7.7;4.9;;;;;;;12.64;93.77637;955.6194;;;;
2019/10/15 00:40:26;;;;;;;11.2;5.5;;;;;;;12.4;94.63477;955.6362;;;;
2019/10/15 00:42:52;;;;;;;7.9;5;;;;;;;12.45;94.6582;955.6088;;;;
2019/10/15 00:45:17;;;;;;;9;5.3;;;;;;;12.39;94.96973;955.5717;;;;
2019/10/15 00:47:42;;;;;;;9.6;5;;;;;;;12.4;94.94727;955.5994;;;;
2019/10/15 00:50:07;;;;;;;11.1;5;;;;;;;12.38;94.45801;955.6122;;;;
2019/10/15 00:52:32;;;;;;;9.6;4.9;;;;;;;12.4;94.10547;955.6092;;;;
2019/10/15 00:54:58;;;;;;;8.2;4.8;;;;;;;12.39;94.49414;955.5774;;;;
2019/10/15 00:57:23;;;;;;;9;4.6;;;;;;;12.44;94.10156;955.53;;;;
2019/10/15 00:59:49;;;;;;;7;4.5;;;;;;;12.55;92.87598;955.489;;;;
2019/10/15 01:02:14;;;;;;;8.4;4.7;;;;;;;12.66;92.81836;955.4626;;;;
2019/10/15 01:04:40;;;;;;;12.7;4.9;;;;;;;12.57;92.79883;955.486;;;;
2019/10/15 01:07:05;;;;;;;10.3;4.5;;;;;;;12.51;92.84375;955.4562;;;;
2019/10/15 01:09:31;;;;;;;11.6;4.7;;;;;;;12.45;92.88965;955.442;;;;
2019/10/15 01:11:56;;;;;;;10.5;4.9;;;;;;;12.37;93.88965;955.3826;;;;
2019/10/15 01:14:22;;;;;;;8.9;4.4;;;;;;;12.38;94.06445;955.3851;;;;
2019/10/15 01:16:47;;;;;;;9.7;4.5;;;;;;;12.23;94.77148;955.3713;;;;
2019/10/15 01:19:13;;;;;;;8.7;4.1;;;;;;;12.31;94.19922;955.3767;;;;
2019/10/15 01:21:38;;;;;;;7.1;4.6;;;;;;;12.26;94.07422;955.3248;;;;
2019/10/15 01:24:03;;;;;;;8.4;4.4;;;;;;;12.25;94.60156;955.3469;;;;
2019/10/15 01:26:29;;;;;;;8.2;4.6;;;;;;;12.29;94.01074;955.3527;;;;
2019/10/15 01:28:54;;;;;;;12;4.6;;;;;;;12.18;94.59766;955.3915;;;;
2019/10/15 01:31:19;;;;;;;8.8;4.6;;;;;;;12.19;94.44922;955.3441;;;;
2019/10/15 01:33:44;;;;;;;8.2;4.6;;;;;;;12.24;93.78125;955.2841;;;;
2019/10/15 01:36:10;;;;;;;9.8;4.4;;;;;;;12.25;93.40234;955.2791;;;;
2019/10/15 01:38:35;;;;;;;9.6;4.5;;;;;;;12.28;93.67383;955.2589;;;;
2019/10/15 01:41:00;;;;;;;8.4;4.6;;;;;;;12.2;93.5752;955.2281;;;;
2019/10/15 01:43:25;;;;;;;8.6;4.2;;;;;;;12.3;93.4834;955.277;;;;
2019/10/15 01:45:51;;;;;;;7.9;4.2;;;;;;;12.28;92.72656;955.2564;;;;
2019/10/15 01:48:16;;;;;;;7.9;4.3;;;;;;;12.28;93.0498;955.2164;;;;
2019/10/15 01:50:42;;;;;;;7.2;4.6;;;;;;;12.27;93.39258;955.2017;;;;
2019/10/15 01:53:06;;;;;;;11.5;4.6;;;;;;;12.23;93.69629;955.144;;;;
2019/10/15 01:55:32;;;;;;;10.4;4.6;;;;;;;12.26;93.36719;955.1108;;;;
2019/10/15 01:57:57;;;;;;;10.6;4.7;;;;;;;12.26;93.58691;955.0944;;;;
2019/10/15 02:00:22;;;;;;;7.9;4.5;;;;;;;12.28;93.15332;955.053;;;;
2019/10/15 02:02:48;;;;;;;7.6;4.4;;;;;;;12.24;93.40039;954.9606;;;;
2019/10/15 02:05:13;;;;;;;8.4;4.7;;;;;;;12.16;94.09863;955.0106;;;;
2019/10/15 02:07:39;;;;;;;9.6;4.5;;;;;;;12.15;93.75098;955.005;;;;
2019/10/15 02:10:04;;;;;;;8.9;4.5;;;;;;;12.22;93.54492;954.8999;;;;
2019/10/15 02:12:29;;;;;;;11.2;4.6;;;;;;;12.29;92.18262;954.8797;;;;
2019/10/15 02:14:54;;;;;;;7.3;4.3;;;;;;;12.42;92.38477;954.8225;;;;
2019/10/15 02:17:19;;;;;;;7.3;4.4;;;;;;;12.31;93.24023;954.8472;;;;
2019/10/15 02:19:45;;;;;;;9;4.7;;;;;;;12.32;92.62012;954.8095;;;;
2019/10/15 02:22:10;;;;;;;10;4.3;;;;;;;12.46;92.50977;954.8045;;;;
2019/10/15 02:24:35;;;;;;;7.5;4.1;;;;;;;12.5;91.72168;954.8147;;;;
2019/10/15 02:27:00;;;;;;;6.2;4;;;;;;;12.56;91.29395;954.7623;;;;
2019/10/15 02:29:25;;;;;;;5.9;3.9;;;;;;;12.62;90.89063;954.7636;;;;
2019/10/15 02:31:50;;;;;;;8.1;4.4;;;;;;;12.61;91.27051;954.7495;;;;
2019/10/15 02:34:16;;;;;;;5.9;3.8;;;;;;;12.63;91.13574;954.7406;;;;
2019/10/15 02:36:41;;;;;;;9.3;3.9;;;;;;;12.61;90.93359;954.7511;;;;
2019/10/15 02:39:07;;;;;;;9.7;4.3;;;;;;;12.46;91.36523;954.7203;;;;
2019/10/15 02:41:32;;;;;;;6.3;4;;;;;;;12.64;90.1084;954.712;;;;
2019/10/15 02:43:57;;;;;;;8.9;4.3;;;;;;;12.5;90.9707;954.7346;;;;
2019/10/15 02:46:23;;;;;;;8.9;4.4;;;;;;;12.4;90.91504;954.6916;;;;
2019/10/15 02:48:48;;;;;;;6.9;4;;;;;;;12.41;90.7207;954.6881;;;;
2019/10/15 02:51:13;;;;;;;5.7;3.7;;;;;;;12.38;91.0498;954.73;;;;
2019/10/15 02:53:38;;;;;;;6.6;4.1;;;;;;;12.34;90.87891;954.7452;;;;
2019/10/15 02:56:03;;;;;;;8.7;4.1;;;;;;;12.21;91.44043;954.7497;;;;
2019/10/15 02:58:28;;;;;;;7.7;4.3;;;;;;;12.17;91.56934;954.6872;;;;
2019/10/15 03:00:53;;;;;;;7.1;4;;;;;;;12.15;91.9834;954.6603;;;;
2019/10/15 03:03:19;;;;;;;8;4.2;;;;;;;12.09;91.50781;954.6379;;;;
2019/10/15 03:05:45;;;;;;;8.6;4.3;;;;;;;12.07;91.85059;954.5218;;;;
2019/10/15 03:08:10;;;;;;;7.3;4.2;;;;;;;12.04;91.88965;954.529;;;;
2019/10/15 03:10:35;;;;;;;7.4;4.2;;;;;;;11.98;92.49023;954.5229;;;;
2019/10/15 03:13:00;;;;;;;7;4.2;;;;;;;11.91;92.78613;954.6019;;;;
2019/10/15 03:15:25;;;;;;;9.1;4.5;;;;;;;12;92.03125;954.6211;;;;
2019/10/15 03:17:51;;;;;;;8.8;4.2;;;;;;;12.04;92.08789;954.5764;;;;
2019/10/15 03:20:16;;;;;;;11.8;4.9;;;;;;;11.99;91.60254;954.567;;;;
2019/10/15 19:26:22;;;;;;;8;3.5;;;;;;;15.67;77.86816;953.3839;;;;
2019/10/15 19:29:21;;;;;;;7.2;2.6;;;;;;;15.65;78.0166;953.3965;;;;
2019/10/15 19:31:46;;;;;;;4.7;3;;;;;;;15.41;78.95117;953.4738;;;;
2019/10/15 19:34:11;;;;;;;4.8;2.9;;;;;;;15.38;79.43555;953.4749;;;;
2019/10/15 19:36:50;;;;;;;4.9;3.2;;;;;;;15.44;79.50293;953.582;;;;
2019/10/15 19:39:01;;;;;;;4.5;2.9;;;;;;;15.47;79.2666;953.5988;;;;
2019/10/15 19:41:26;;;;;;;4;2.8;;;;;;;15.54;79.59277;953.7;;;;
2019/10/15 19:43:51;;;;;;;4.6;3;;;;;;;15.38;80.19141;953.7787;;;;
2019/10/15 19:46:16;;;;;;;5;3.2;;;;;;;15.22;82.54883;953.9105;;;;
2019/10/15 19:48:41;;;;;;;5.7;3.1;;;;;;;15.11;83.89844;954.0379;;;;
2019/10/15 19:51:06;;;;;;;5.3;2.6;;;;;;;14.86;84.72266;954.0453;;;;
2019/10/15 19:53:31;;;;;;;3.6;2.5;;;;;;;14.81;84.80469;954.1442;;;;
2019/10/15 19:55:57;;;;;;;3.8;2.1;;;;;;;14.6;85.17188;954.3315;;;;
2019/10/15 19:58:22;;;;;;;4.3;1.8;;;;;;;14.71;84.37891;954.3694;;;;
2019/10/15 20:00:47;;;;;;;2.5;2;;;;;;;14.69;84.39746;954.5154;;;;
2019/10/15 20:03:12;;;;;;;4.2;1.9;;;;;;;14.64;84.68066;954.6012;;;;
2019/10/15 20:05:37;;;;;;;1.8;1.4;;;;;;;14.63;84.30566;954.7126;;;;
2019/10/15 20:08:02;;;;;;;3;1.5;;;;;;;14.55;84.31445;954.8164;;;;
2019/10/15 20:10:27;;;;;;;1.7;1.3;;;;;;;14.44;84.70996;954.9698;;;;
2019/10/15 20:12:52;;;;;;;2.3;1.2;;;;;;;14.5;83.88477;954.8834;;;;
2019/10/15 20:15:17;;;;;;;3.7;1.9;;;;;;;14.47;83.60254;954.9138;;;;
2019/10/15 20:17:42;;;;;;;2.8;1.4;;;;;;;14.27;83.91113;954.9973;;;;
2019/10/15 20:20:07;;;;;;;2.6;1.9;;;;;;;14.1;84.95898;955.106;;;;
2019/10/15 20:22:33;;;;;;;2.9;1.6;;;;;;;14.1;85.01563;955.1675;;;;
2019/10/15 20:24:58;;;;;;;3;1.1;;;;;;;14.21;85.40918;955.0936;;;;
2019/10/15 20:27:23;;;;;;;2.7;1.1;;;;;;;14.01;86.07715;955.1136;;;;
2019/10/15 20:29:48;;;;;;;1.6;1;;;;;;;13.68;88.66797;955.163;;;;
2019/10/15 20:32:13;;;;;;;1.9;0.9;;;;;;;13.6;89.19629;955.2653;;;;
2019/10/15 20:34:38;;;;;;;1.2;0.9;;;;;;;13.55;91.0166;955.3184;;;;
2019/10/15 20:37:03;;;;;;;1.5;1;;;;;;;13.34;91.89941;955.3791;;;;
2019/10/15 20:39:28;;;;;;;1.4;1.1;;;;;;;13.29;92.54688;955.4943;;;;
2019/10/15 20:41:53;;;;;;;6.7;4.9;;;;;;;13.26;93.80469;955.4484;;;;
2019/10/15 20:44:18;;;;;;;3.3;2.2;;;;;;;13.35;92.97852;955.595;;;;
2019/10/15 20:46:43;;;;;;;5.5;2.6;;;;;;;13.34;93.24121;955.639;;;;
2019/10/15 20:49:09;;;;;;;4;2.2;;;;;;;13.23;93.42676;955.6697;;;;
2019/10/15 20:51:35;;;;;;;3.8;2.1;;;;;;;13.15;94.10449;955.6024;;;;
2019/10/15 20:54:06;;;;;;;3.3;1.7;;;;;;;13.34;94.90918;955.5499;;;;
2019/10/15 20:56:28;;;;;;;7.7;4;;;;;;;13.3;94.75098;955.594;;;;
2019/10/15 20:58:54;;;;;;;2.2;1.3;;;;;;;13.22;94.90723;955.6019;;;;
2019/10/15 21:01:20;;;;;;;1.2;0.8;;;;;;;13.15;93.9541;955.478;;;;
2019/10/15 21:03:48;;;;;;;1.7;0.9;;;;;;;13.17;94.47852;955.5657;;;;
2019/10/15 21:06:13;;;;;;;1.1;0.9;;;;;;;13.18;95.41797;955.5803;;;;
2019/10/15 21:08:38;;;;;;;1.3;1.1;;;;;;;13.17;95.83301;955.4986;;;;
2019/10/15 21:11:03;;;;;;;1.9;1.3;;;;;;;13.16;96.0166;955.4453;;;;
2019/10/15 21:13:28;;;;;;;2.3;1.2;;;;;;;13.12;95.65918;955.5073;;;;
2019/10/15 21:15:53;;;;;;;2.2;1.4;;;;;;;13.08;95.6748;955.5761;;;;
2019/10/15 21:18:18;;;;;;;1.2;1;;;;;;;13.23;94.05176;955.6231;;;;
2019/10/15 21:20:43;;;;;;;1.3;1;;;;;;;12.86;93.58887;955.5932;;;;
2019/10/15 21:23:08;;;;;;;1.4;0.7;;;;;;;12.86;94.95605;955.7199;;;;
2019/10/15 21:25:33;;;;;;;1.5;0.8;;;;;;;12.91;94.19043;955.7578;;;;
2019/10/15 21:27:59;;;;;;;1.9;0.8;;;;;;;13.03;93.23438;955.7729;;;;
2019/10/15 21:30:24;;;;;;;1.9;1.4;;;;;;;12.96;92.8252;955.8956;;;;
2019/10/15 21:32:49;;;;;;;2.3;0.8;;;;;;;13;91.63086;955.8661;;;;
2019/10/15 21:35:14;;;;;;;1.1;0.7;;;;;;;13;91.7793;955.9128;;;;
2019/10/15 21:37:39;;;;;;;1.2;0.9;;;;;;;12.94;90.86426;955.9731;;;;
2019/10/15 21:40:04;;;;;;;1.9;1;;;;;;;13;91.01758;955.9619;;;;
2019/10/15 21:42:29;;;;;;;1.1;0.9;;;;;;;12.96;90.73047;956.0101;;;;
2019/10/15 21:44:55;;;;;;;1.3;0.8;;;;;;;12.84;91.52539;956.0971;;;;
2019/10/15 21:47:20;;;;;;;1;0.8;;;;;;;12.86;90.90625;956.1839;;;;
2019/10/15 21:49:45;;;;;;;1.8;0.7;;;;;;;12.76;90.5625;956.1317;;;;
2019/10/15 21:52:10;;;;;;;1.9;0.6;;;;;;;12.56;91.27246;956.1472;;;;
2019/10/15 21:54:35;;;;;;;2.4;0.8;;;;;;;12.66;91.76563;956.1216;;;;
2019/10/15 21:57:01;;;;;;;0.8;0.7;;;;;;;12.71;91.67285;956.1453;;;;
2019/10/15 21:59:26;;;;;;;0.8;0.7;;;;;;;12.67;91.36426;956.2033;;;;
2019/10/15 22:01:51;;;;;;;2.7;1.1;;;;;;;12.71;90.53906;956.1758;;;;
2019/10/15 22:04:16;;;;;;;1.4;0.7;;;;;;;12.66;90.50684;956.1902;;;;
2019/10/15 22:06:41;;;;;;;1.9;0.8;;;;;;;12.66;90.94434;956.1445;;;;
2019/10/15 22:09:06;;;;;;;0.8;0.7;;;;;;;12.73;90.26563;956.2731;;;;
2019/10/15 22:11:31;;;;;;;1.5;0.7;;;;;;;12.55;90.14746;956.3292;;;;
2019/10/15 22:13:56;;;;;;;2.3;0.7;;;;;;;12.52;90.06055;956.392;;;;
2019/10/15 22:16:22;;;;;;;1.5;0.7;;;;;;;12.52;90.07031;956.3315;;;;
2019/10/15 22:18:47;;;;;;;0.7;0.7;;;;;;;12.59;89.95996;956.1929;;;;
2019/10/15 22:21:12;;;;;;;1.9;0.8;;;;;;;12.49;90.12305;956.2717;;;;
2019/10/15 22:23:38;;;;;;;1.2;0.8;;;;;;;12.5;89.76855;956.4084;;;;
2019/10/15 22:26:03;;;;;;;1.7;0.8;;;;;;;12.48;89.58887;956.4377;;;;
2019/10/15 22:28:28;;;;;;;1.8;0.8;;;;;;;12.46;89.99023;956.4162;;;;
2019/10/15 22:30:53;;;;;;;1.5;1.1;;;;;;;12.47;89.41211;956.5363;;;;
2019/10/15 22:33:19;;;;;;;2.1;0.9;;;;;;;12.51;89.78125;956.5212;;;;
2019/10/15 22:35:44;;;;;;;2.6;1.2;;;;;;;12.55;89.17578;956.4535;;;;
2019/10/15 22:38:09;;;;;;;1.2;0.7;;;;;;;12.42;89.33496;956.5876;;;;
2019/10/15 22:40:34;;;;;;;1.4;0.7;;;;;;;12.47;89.69141;956.6744;;;;
2019/10/15 22:42:59;;;;;;;0.8;0.8;;;;;;;12.45;89.60645;956.7039;;;;
2019/10/15 22:45:24;;;;;;;0.8;0.8;;;;;;;12.4;89.35449;956.8015;;;;
2019/10/15 22:47:49;;;;;;;2;0.8;;;;;;;12.43;89.64941;956.7723;;;;
2019/10/15 22:50:14;;;;;;;0.8;0.6;;;;;;;12.34;88.96094;956.7504;;;;
2019/10/15 22:52:39;;;;;;;1.1;0.7;;;;;;;12.33;89.07422;956.6442;;;;
2019/10/15 22:55:04;;;;;;;1;0.7;;;;;;;12.47;88.38477;956.6515;;;;
2019/10/15 22:57:30;;;;;;;0.9;0.6;;;;;;;12.37;88.72363;956.588;;;;
2019/10/15 22:59:55;;;;;;;1.5;0.6;;;;;;;12.35;88.10742;956.5706;;;;
2019/10/15 23:02:20;;;;;;;0.6;0.5;;;;;;;12.29;88.16406;956.5823;;;;
2019/10/15 23:04:45;;;;;;;1.4;0.6;;;;;;;12.28;88.10449;956.723;;;;
2019/10/15 23:07:10;;;;;;;1.2;0.4;;;;;;;12.3;87.94629;956.8638;;;;
2019/10/15 23:09:35;;;;;;;3.4;0.6;;;;;;;12.19;87.94727;956.9501;;;;
2019/10/15 23:12:00;;;;;;;0.8;0.7;;;;;;;12.12;88.47559;956.9235;;;;
2019/10/15 23:14:25;;;;;;;0.6;0.5;;;;;;;12.11;88.62402;957.0385;;;;
2019/10/15 23:16:50;;;;;;;0.6;0.6;;;;;;;12.14;88.27344;957.0861;;;;
2019/10/15 23:19:15;;;;;;;1;0.5;;;;;;;12.27;87.82324;957.1184;;;;
2019/10/15 23:21:40;;;;;;;0.4;0.4;;;;;;;;;;;;;
2019/10/15 23:24:05;;;;;;;0.7;0.5;;;;;;;;;;;;;
2019/10/15 23:26:30;;;;;;;1;0.5;;;;;;;;;;;;;
2019/10/15 23:28:55;;;;;;;0.4;0.4;;;;;;;;;;;;;
2019/10/15 23:31:21;;;;;;;1.4;0.5;;;;;;;;;;;;;
2019/10/15 23:33:46;;;;;;;1.6;0.4;;;;;;;;;;;;;
2019/10/15 23:36:11;;;;;;;0.5;0.4;;;;;;;;;;;;;
2019/10/15 23:38:36;;;;;;;1.8;0.5;;;;;;;;;;;;;
2019/10/15 23:41:01;;;;;;;1;0.5;;;;;;;;;;;;;
2019/10/15 23:43:29;;;;;;;1.2;0.5;;;;;;;;;;;;;
2019/10/15 23:45:51;;;;;;;0.6;0.4;;;;;;;;;;;;;
2019/10/15 23:48:16;;;;;;;1.3;0.4;;;;;;;;;;;;;
2019/10/15 23:50:41;;;;;;;1.3;0.4;;;;;;;;;;;;;
2019/10/15 23:53:06;;;;;;;0.4;0.4;;;;;;;;;;;;;
2019/10/15 23:55:31;;;;;;;1.3;0.4;;;;;;;;;;;;;
2019/10/15 23:57:57;;;;;;;0.3;0.3;;;;;;;;;;;;;
